Time,TemperatureF,DewpointF,PressureIn,WindDirection,WindDirectionDegrees,WindSpeedMPH,WindSpeedGustMPH,Humidity,HourlyPrecipIn,Conditions,Clouds,dailyrainin,SoftwareType,DateUTC
2013-02-21 00:03:00,20.3,15.0,29.73,WSW,250,7.0,24.0,79,0.00,,,0.00,weatherlink.com 1.10,2013-02-21 05:03:00,
2013-02-21 00:18:00,20.4,15.0,29.73,WSW,239,10.0,28.0,79,0.00,,,0.00,weatherlink.com 1.10,2013-02-21 05:18:00,
2013-02-21 00:33:00,20.3,15.0,29.73,NW,306,8.0,22.0,80,0.00,,,0.00,weatherlink.com 1.10,2013-02-21 05:33:00,
2013-02-21 00:48:00,20.4,15.0,29.73,SSW,211,17.0,25.0,80,0.00,,,0.00,weatherlink.com 1.10,2013-02-21 05:48:00,
2013-02-21 01:03:00,20.5,15.0,29.73,SW,229,11.0,27.0,80,0.00,,,0.00,weatherlink.com 1.10,2013-02-21 06:03:00,
2013-02-21 01:18:00,20.4,15.0,29.73,SW,230,12.0,33.0,80,0.00,,,0.00,weatherlink.com 1.10,2013-02-21 06:18:00,
2013-02-21 01:33:00,20.3,15.0,29.73,SW,223,19.0,29.0,81,0.00,,,0.00,weatherlink.com 1.10,2013-02-21 06:33:00,
2013-02-21 01:49:00,20.3,15.0,29.73,WSW,240,11.0,35.0,80,0.00,,,0.00,weatherlink.com 1.10,2013-02-21 06:49:00,
2013-02-21 02:03:00,20.0,15.0,29.73,WNW,290,14.0,30.0,82,0.00,,,0.00,weatherlink.com 1.10,2013-02-21 07:03:00,
2013-02-21 02:18:00,19.9,15.0,29.74,NNW,343,19.0,27.0,82,0.00,,,0.00,weatherlink.com 1.10,2013-02-21 07:18:00,
2013-02-21 02:33:00,19.8,15.0,29.73,SW,225,21.0,28.0,82,0.00,,,0.00,weatherlink.com 1.10,2013-02-21 07:33:00,
2013-02-21 02:48:00,19.8,15.0,29.73,WSW,244,14.0,29.0,81,0.00,,,0.00,weatherlink.com 1.10,2013-02-21 07:48:00,
2013-02-21 03:04:00,19.7,15.0,29.73,SW,229,12.0,34.0,80,0.00,,,0.00,weatherlink.com 1.10,2013-02-21 08:04:00,
2013-02-21 03:18:00,19.6,14.0,29.73,SW,225,18.0,25.0,79,0.00,,,0.00,weatherlink.com 1.10,2013-02-21 08:18:00,
2013-02-21 03:34:00,19.3,16.0,29.74,West,268,9.0,26.0,87,0.00,,,0.00,weatherlink.com 1.10,2013-02-21 08:34:00,
2013-02-21 03:49:00,19.3,14.0,29.74,SW,230,15.0,23.0,79,0.00,,,0.00,weatherlink.com 1.10,2013-02-21 08:49:00,
2013-02-21 04:04:00,19.0,14.0,29.74,WSW,252,10.0,27.0,80,0.00,,,0.00,weatherlink.com 1.10,2013-02-21 09:04:00,
2013-02-21 04:19:00,18.6,14.0,29.75,West,279,11.0,23.0,82,0.00,,,0.00,weatherlink.com 1.10,2013-02-21 09:19:00,
2013-02-21 04:34:00,18.3,14.0,29.75,SW,235,8.0,24.0,83,0.00,,,0.00,weatherlink.com 1.10,2013-02-21 09:34:00,
2013-02-21 04:49:00,17.9,15.0,29.75,SW,226,13.0,26.0,87,0.00,,,0.00,weatherlink.com 1.10,2013-02-21 09:49:00,
2013-02-21 05:04:00,17.4,15.0,29.77,WSW,243,10.0,26.0,88,0.00,,,0.00,weatherlink.com 1.10,2013-02-21 10:04:00,
2013-02-21 05:19:00,15.4,12.0,29.78,WNW,285,15.0,30.0,86,0.00,,,0.00,weatherlink.com 1.10,2013-02-21 10:19:00,
2013-02-21 05:34:00,15.1,11.0,29.76,West,274,24.0,36.0,82,0.00,,,0.00,weatherlink.com 1.10,2013-02-21 10:34:00,
2013-02-21 05:49:00,14.6,10.0,29.77,WNW,286,21.0,32.0,80,0.00,,,0.00,weatherlink.com 1.10,2013-02-21 10:49:00,
2013-02-21 06:04:00,14.1,9.0,29.78,WNW,284,19.0,30.0,79,0.00,,,0.00,weatherlink.com 1.10,2013-02-21 11:04:00,
2013-02-21 06:19:00,13.6,8.0,29.79,WNW,286,18.0,33.0,78,0.00,,,0.00,weatherlink.com 1.10,2013-02-21 11:19:00,
2013-02-21 06:34:00,13.3,7.0,29.78,WNW,285,21.0,34.0,77,0.00,,,0.00,weatherlink.com 1.10,2013-02-21 11:34:00,
2013-02-21 06:49:00,12.9,7.0,29.79,West,279,19.0,35.0,76,0.00,,,0.00,weatherlink.com 1.10,2013-02-21 11:49:00,
2013-02-21 07:04:00,12.6,6.0,29.79,WNW,289,25.0,44.0,76,0.01,,,0.01,weatherlink.com 1.10,2013-02-21 12:04:00,
2013-02-21 07:20:00,12.5,6.0,29.79,WNW,285,22.0,39.0,76,0.01,,,0.01,weatherlink.com 1.10,2013-02-21 12:20:00,
2013-02-21 07:34:00,12.4,7.0,29.81,WNW,283,15.0,39.0,77,0.01,,,0.01,weatherlink.com 1.10,2013-02-21 12:34:00,
2013-02-21 07:50:00,12.6,6.0,29.81,West,277,32.0,38.0,76,0.01,,,0.01,weatherlink.com 1.10,2013-02-21 12:50:00,
2013-02-21 08:05:00,12.6,6.0,29.81,WNW,284,31.0,37.0,76,0.00,,,0.01,weatherlink.com 1.10,2013-02-21 13:05:00,
2013-02-21 08:20:00,12.6,5.0,29.81,West,272,23.0,47.0,72,0.00,,,0.01,weatherlink.com 1.10,2013-02-21 13:20:00,
2013-02-21 08:35:00,12.7,6.0,29.82,WNW,303,31.0,45.0,73,0.00,,,0.01,weatherlink.com 1.10,2013-02-21 13:35:00,
2013-02-21 08:50:00,13.1,5.0,29.81,WNW,284,29.0,51.0,71,0.00,,,0.01,weatherlink.com 1.10,2013-02-21 13:50:00,
2013-02-21 09:05:00,12.5,5.0,29.83,West,272,19.0,46.0,71,0.00,,,0.01,weatherlink.com 1.10,2013-02-21 14:05:00,
2013-02-21 09:20:00,12.8,5.0,29.83,West,277,25.0,32.0,72,0.00,,,0.01,weatherlink.com 1.10,2013-02-21 14:20:00,
2013-02-21 09:35:00,13.3,6.0,29.83,WNW,290,26.0,28.0,71,0.00,,,0.01,weatherlink.com 1.10,2013-02-21 14:35:00,
2013-02-21 09:50:00,13.4,5.0,29.84,West,271,18.0,32.0,70,0.00,,,0.01,weatherlink.com 1.10,2013-02-21 14:50:00,
2013-02-21 10:05:00,13.9,6.0,29.84,West,273,23.0,26.0,70,0.00,,,0.01,weatherlink.com 1.10,2013-02-21 15:05:00,
2013-02-21 10:20:00,14.1,6.0,29.84,West,264,13.0,30.0,69,0.00,,,0.01,weatherlink.com 1.10,2013-02-21 15:20:00,
2013-02-21 10:36:00,14.8,6.0,29.84,West,265,18.0,27.0,68,0.00,,,0.01,weatherlink.com 1.10,2013-02-21 15:36:00,
2013-02-21 10:50:00,15.0,6.0,29.85,WNW,288,16.0,26.0,68,0.00,,,0.01,weatherlink.com 1.10,2013-02-21 15:50:00,
2013-02-21 11:05:00,14.7,6.0,29.85,WSW,258,13.0,33.0,68,0.00,,,0.01,weatherlink.com 1.10,2013-02-21 16:05:00,
2013-02-21 11:21:00,16.1,7.0,29.85,WNW,302,18.0,25.0,67,0.00,,,0.01,weatherlink.com 1.10,2013-02-21 16:21:00,
2013-02-21 11:36:00,15.8,7.0,29.85,West,260,18.0,28.0,68,0.00,,,0.01,weatherlink.com 1.10,2013-02-21 16:36:00,
2013-02-21 11:51:00,16.9,7.0,29.86,SW,232,8.0,26.0,66,0.00,,,0.01,weatherlink.com 1.10,2013-02-21 16:51:00,
2013-02-21 12:06:00,17.3,8.0,29.86,WSW,251,10.0,23.0,66,0.00,,,0.01,weatherlink.com 1.10,2013-02-21 17:06:00,
2013-02-21 12:21:00,18.3,9.0,29.86,WSW,240,8.0,23.0,66,0.00,,,0.01,weatherlink.com 1.10,2013-02-21 17:21:00,
2013-02-21 12:36:00,16.9,7.0,29.87,NW,311,7.0,27.0,65,0.00,,,0.01,weatherlink.com 1.10,2013-02-21 17:36:00,
2013-02-21 12:51:00,17.5,7.0,29.87,West,281,14.0,27.0,64,0.00,,,0.01,weatherlink.com 1.10,2013-02-21 17:51:00,
2013-02-21 13:06:00,18.3,8.0,29.87,NW,304,11.0,25.0,64,0.00,,,0.01,weatherlink.com 1.10,2013-02-21 18:06:00,
2013-02-21 13:21:00,18.6,8.0,29.88,West,269,9.0,27.0,64,0.00,,,0.01,weatherlink.com 1.10,2013-02-21 18:21:00,
2013-02-21 13:36:00,18.4,8.0,29.89,NW,304,19.0,30.0,64,0.00,,,0.01,weatherlink.com 1.10,2013-02-21 18:36:00,
2013-02-21 13:51:00,18.5,8.0,29.89,WNW,291,14.0,27.0,65,0.00,,,0.01,weatherlink.com 1.10,2013-02-21 18:51:00,
2013-02-21 14:06:00,18.7,9.0,29.90,NW,304,19.0,27.0,65,0.00,,,0.01,weatherlink.com 1.10,2013-02-21 19:06:00,
2013-02-21 14:21:00,18.9,9.0,29.91,NNW,331,23.0,27.0,66,0.00,,,0.01,weatherlink.com 1.10,2013-02-21 19:21:00,
2013-02-21 14:37:00,19.2,9.0,29.91,WNW,300,13.0,38.0,65,0.00,,,0.01,weatherlink.com 1.10,2013-02-21 19:37:00,
2013-02-21 14:52:00,19.8,10.0,29.92,WNW,300,19.0,36.0,65,0.00,,,0.01,weatherlink.com 1.10,2013-02-21 19:52:00,
2013-02-21 15:07:00,20.4,10.0,29.93,NNW,340,27.0,28.0,64,0.00,,,0.01,weatherlink.com 1.10,2013-02-21 20:07:00,
2013-02-21 15:22:00,19.9,10.0,29.93,WNW,302,8.0,34.0,65,0.00,,,0.01,weatherlink.com 1.10,2013-02-21 20:22:00,
2013-02-21 15:37:00,20.0,10.0,29.94,WNW,295,14.0,30.0,65,0.00,,,0.01,weatherlink.com 1.10,2013-02-21 20:37:00,
2013-02-21 15:52:00,20.0,10.0,29.95,NW,307,22.0,31.0,66,0.00,,,0.01,weatherlink.com 1.10,2013-02-21 20:52:00,
2013-02-21 16:07:00,19.9,11.0,29.96,NW,313,10.0,29.0,67,0.00,,,0.01,weatherlink.com 1.10,2013-02-21 21:07:00,
2013-02-21 16:22:00,19.5,10.0,29.98,WNW,286,19.0,28.0,67,0.00,,,0.01,weatherlink.com 1.10,2013-02-21 21:22:00,
2013-02-21 16:37:00,20.3,11.0,29.99,SW,236,17.0,22.0,68,0.00,,,0.01,weatherlink.com 1.10,2013-02-21 21:37:00,
2013-02-21 16:52:00,19.9,11.0,30.01,WNW,296,8.0,27.0,68,0.00,,,0.01,weatherlink.com 1.10,2013-02-21 21:52:00,
2013-02-21 17:07:00,19.5,11.0,30.02,WNW,288,9.0,24.0,69,0.00,,,0.01,weatherlink.com 1.10,2013-02-21 22:07:00,
2013-02-21 17:22:00,19.3,11.0,30.03,West,270,5.0,18.0,70,0.00,,,0.01,weatherlink.com 1.10,2013-02-21 22:22:00,
2013-02-21 17:37:00,19.3,11.0,30.05,NNW,342,6.0,21.0,71,0.00,,,0.01,weatherlink.com 1.10,2013-02-21 22:37:00,
2013-02-21 17:53:00,19.2,12.0,30.06,WSW,248,1.0,17.0,72,0.00,,,0.01,weatherlink.com 1.10,2013-02-21 22:53:00,
2013-02-21 18:08:00,18.9,12.0,30.07,NW,306,8.0,18.0,74,0.00,,,0.01,weatherlink.com 1.10,2013-02-21 23:08:00,
2013-02-21 18:23:00,18.6,12.0,30.09,WNW,290,11.0,15.0,75,0.00,,,0.01,weatherlink.com 1.10,2013-02-21 23:23:00,
2013-02-21 18:38:00,18.6,12.0,30.10,WNW,303,3.0,17.0,76,0.00,,,0.01,weatherlink.com 1.10,2013-02-21 23:38:00,
2013-02-21 19:08:00,18.9,13.0,30.11,WNW,286,6.0,15.0,77,0.00,,,0.01,weatherlink.com 1.10,2013-02-22 00:08:00,
2013-02-21 19:23:00,19.2,13.0,30.13,SW,235,2.0,12.0,77,0.00,,,0.01,weatherlink.com 1.10,2013-02-22 00:23:00,
2013-02-21 19:38:00,19.4,13.0,30.14,West,263,4.0,11.0,77,0.00,,,0.01,weatherlink.com 1.10,2013-02-22 00:38:00,
2013-02-21 19:53:00,19.6,14.0,30.15,West,277,2.0,12.0,77,0.00,,,0.01,weatherlink.com 1.10,2013-02-22 00:53:00,
2013-02-21 20:08:00,19.9,14.0,30.15,WSW,238,7.0,12.0,77,0.00,,,0.01,weatherlink.com 1.10,2013-02-22 01:08:00,
2013-02-21 20:23:00,19.9,14.0,30.16,WSW,246,3.0,10.0,78,0.00,,,0.01,weatherlink.com 1.10,2013-02-22 01:23:00,
2013-02-21 20:38:00,20.9,15.0,30.17,West,267,0.0,9.0,78,0.00,,,0.01,weatherlink.com 1.10,2013-02-22 01:38:00,
2013-02-21 21:08:00,20.4,15.0,30.18,WNW,296,4.0,10.0,78,0.00,,,0.01,weatherlink.com 1.10,2013-02-22 02:08:00,
2013-02-21 21:24:00,20.2,14.0,30.19,West,270,1.0,7.0,78,0.00,,,0.01,weatherlink.com 1.10,2013-02-22 02:24:00,
2013-02-21 21:39:00,19.9,14.0,30.19,NW,307,3.0,8.0,79,0.00,,,0.01,weatherlink.com 1.10,2013-02-22 02:39:00,
2013-02-21 21:54:00,20.8,15.0,30.20,WNW,299,3.0,8.0,78,0.00,,,0.01,weatherlink.com 1.10,2013-02-22 02:54:00,
2013-02-21 22:09:00,20.7,15.0,30.20,West,259,2.0,5.0,78,0.00,,,0.01,weatherlink.com 1.10,2013-02-22 03:09:00,
2013-02-21 22:24:00,20.7,15.0,30.21,WNW,288,2.0,4.0,78,0.00,,,0.01,weatherlink.com 1.10,2013-02-22 03:24:00,
2013-02-21 22:39:00,20.7,15.0,30.21,WNW,298,2.0,5.0,79,0.00,,,0.01,weatherlink.com 1.10,2013-02-22 03:39:00,
2013-02-21 22:54:00,21.0,15.0,30.23,SSW,203,1.0,9.0,79,0.00,,,0.01,weatherlink.com 1.10,2013-02-22 03:54:00,
2013-02-21 23:09:00,20.7,15.0,30.24,WSW,253,7.0,9.0,80,0.00,,,0.01,weatherlink.com 1.10,2013-02-22 04:09:00,
2013-02-21 23:24:00,20.6,16.0,30.25,SW,221,3.0,16.0,81,0.00,,,0.01,weatherlink.com 1.10,2013-02-22 04:24:00,
2013-02-21 23:39:00,20.7,16.0,30.26,WSW,252,6.0,16.0,81,0.00,,,0.01,weatherlink.com 1.10,2013-02-22 04:39:00,
2013-02-21 23:54:00,21.1,16.0,30.27,WSW,254,5.0,10.0,81,0.00,,,0.01,weatherlink.com 1.10,2013-02-22 04:54:00,